Stockton Springs, Maine
Current Conditions -  °F | °C
As of 10:53 AM on Saturday 25 Oct 2014 (Local Time) from KBGR Reporting Station
Few Clouds Few Clouds  
Wind Chill: 53°   Ceiling: Unl
Heat Index: 53°   Visibility: 10mi
Dew Point: 39°   Wind: 6mph
Humidity: 59%   Direction: 270°W
Pressure: 29.64"   Gusts: NA
Location:  44.49°N, 68.86°W
Report Text: KBGR 251453Z 27005KT 10SM FEW060 FEW120 12/04 A2964 RMK AO2 SLP037 T01170039 58006
Loading
Personal Weather Stations






























Interactive Weather Map
Tropical Storm Tracking
New forecast layout! Learn more

10-Day Weather Forecast

Advertisements
Track Severe Weather on mobile